createdAt,value
2023-08-06T00:01:45.664Z,0.40
2023-08-06T00:04:16.916Z,0.20
2023-08-06T00:06:48.109Z,0.30
2023-08-06T00:09:19.301Z,0.30
2023-08-06T00:11:50.680Z,0.30
2023-08-06T00:14:21.882Z,0.20
2023-08-06T00:16:52.940Z,0.30
2023-08-06T00:19:24.283Z,0.40
2023-08-06T00:21:55.422Z,0.20
2023-08-06T00:24:26.459Z,0.30
2023-08-06T00:26:57.504Z,0.30
2023-08-06T00:29:28.552Z,0.30
2023-08-06T00:31:59.488Z,0.40
2023-08-06T00:34:30.459Z,0.40
2023-08-06T00:37:01.444Z,0.40
2023-08-06T00:39:32.754Z,0.30
2023-08-06T00:42:03.832Z,0.30
2023-08-06T00:44:34.773Z,0.40
2023-08-06T00:47:06.510Z,0.40
2023-08-06T00:49:37.722Z,0.20
2023-08-06T00:52:10.686Z,0.50
2023-08-06T00:54:43.193Z,0.20
2023-08-06T00:57:15.265Z,0.50
2023-08-06T00:59:46.537Z,0.40
2023-08-06T01:02:17.843Z,0.40
2023-08-06T01:04:49.273Z,0.20
2023-08-06T01:07:30.845Z,0.30
2023-08-06T01:10:29.152Z,0.30
2023-08-06T01:13:11.176Z,0.30
2023-08-06T01:15:48.336Z,0.30
2023-08-06T01:18:19.475Z,0.40
2023-08-06T01:20:52.236Z,0.20
2023-08-06T01:23:23.697Z,0.30
2023-08-06T01:26:05.079Z,0.30
2023-08-06T01:28:46.407Z,0.20
2023-08-06T01:31:21.130Z,0.20
2023-08-06T01:33:54.341Z,0.40
2023-08-06T01:36:26.155Z,0.30
2023-08-06T01:38:58.488Z,0.30
2023-08-06T01:41:29.725Z,0.20
2023-08-06T01:44:00.716Z,0.30
2023-08-06T01:46:31.833Z,0.20
2023-08-06T01:49:02.795Z,0.30
2023-08-06T01:51:33.869Z,0.30
2023-08-06T01:54:05.022Z,0.40
2023-08-06T01:56:36.107Z,0.30
2023-08-06T01:59:07.275Z,0.20
2023-08-06T02:01:38.410Z,0.30
2023-08-06T02:04:09.633Z,0.30
2023-08-06T02:06:41.118Z,0.30
2023-08-06T02:09:12.025Z,0.30
2023-08-06T02:11:43.162Z,0.20
2023-08-06T02:14:15.168Z,0.20
2023-08-06T02:16:46.125Z,0.30
2023-08-06T02:19:17.919Z,0.30
2023-08-06T02:21:49.016Z,0.30
2023-08-06T02:24:20.155Z,0.30
2023-08-06T02:26:52.683Z,0.30
2023-08-06T02:29:24.004Z,0.30
2023-08-06T02:31:55.237Z,0.30
2023-08-06T02:34:27.092Z,0.50
2023-08-06T02:36:58.197Z,0.30
2023-08-06T02:39:29.655Z,0.20
2023-08-06T02:42:00.496Z,0.30
2023-08-06T02:44:32.465Z,0.40
2023-08-06T02:47:04.005Z,0.40
2023-08-06T02:49:35.156Z,0.50
2023-08-06T02:52:06.758Z,0.30
2023-08-06T02:54:37.731Z,0.10
2023-08-06T02:57:09.897Z,0.30
2023-08-06T02:59:40.935Z,0.30
2023-08-06T03:02:12.108Z,0.20
2023-08-06T03:04:44.231Z,0.30
2023-08-06T03:07:15.336Z,0.10
2023-08-06T03:09:46.276Z,0.20
2023-08-06T03:12:17.717Z,0.20
2023-08-06T03:14:48.868Z,0.20
2023-08-06T03:17:19.959Z,0.20
2023-08-06T03:19:51.034Z,0.30
2023-08-06T03:22:22.073Z,0.20
2023-08-06T03:24:55.392Z,0.20
2023-08-06T03:27:26.410Z,0.10
2023-08-06T03:29:58.100Z,0.10
2023-08-06T03:32:29.165Z,0.20
2023-08-06T03:35:00.422Z,0.10
2023-08-06T03:37:32.960Z,0.10
2023-08-06T03:40:05.066Z,0.00
2023-08-06T03:42:36.293Z,0.10
2023-08-06T03:45:08.964Z,0.10
2023-08-06T03:47:40.351Z,0.20
2023-08-06T03:50:12.168Z,0.20
2023-08-06T03:52:43.268Z,0.20
2023-08-06T03:55:14.354Z,0.10
2023-08-06T03:57:45.259Z,0.20
2023-08-06T04:00:16.789Z,0.10
2023-08-06T04:02:47.988Z,0.10
2023-08-06T04:05:19.735Z,0.10
2023-08-06T04:07:50.700Z,0.10
2023-08-06T04:10:21.846Z,0.00
2023-08-06T04:12:52.859Z,0.00
2023-08-06T04:15:23.972Z,0.00
2023-08-06T04:17:55.120Z,0.00
2023-08-06T04:20:26.124Z,0.00
2023-08-06T04:22:57.860Z,0.10
2023-08-06T04:25:28.870Z,0.00
2023-08-06T04:27:59.846Z,0.00
2023-08-06T04:30:30.789Z,0.10
2023-08-06T04:33:01.888Z,0.00
2023-08-06T04:35:33.856Z,0.00
2023-08-06T04:38:04.858Z,0.00
2023-08-06T04:40:38.397Z,0.00
2023-08-06T04:43:09.653Z,0.00
2023-08-06T04:45:47.672Z,0.00
2023-08-06T04:48:18.931Z,0.10
2023-08-06T04:50:51.203Z,0.00
2023-08-06T04:53:22.356Z,0.00
2023-08-06T04:55:53.436Z,0.10
2023-08-06T04:58:24.429Z,0.10
2023-08-06T05:00:56.870Z,0.00
2023-08-06T05:03:28.348Z,0.10
2023-08-06T05:05:59.695Z,0.10
2023-08-06T05:08:31.064Z,0.10
2023-08-06T05:11:02.380Z,0.10
2023-08-06T05:13:33.345Z,0.10
2023-08-06T05:16:04.721Z,0.00
2023-08-06T05:18:38.902Z,0.10
2023-08-06T05:21:10.025Z,0.00
2023-08-06T05:23:40.999Z,0.10
2023-08-06T05:26:12.101Z,0.10
2023-08-06T05:28:43.485Z,0.00
2023-08-06T05:31:14.666Z,0.20
2023-08-06T05:33:45.734Z,0.10
2023-08-06T05:36:18.908Z,0.10
2023-08-06T05:38:50.131Z,0.10
2023-08-06T05:41:21.099Z,0.10
2023-08-06T05:43:52.222Z,0.10
2023-08-06T05:46:23.428Z,0.00
2023-08-06T05:48:54.428Z,0.10
2023-08-06T05:51:25.701Z,0.10
2023-08-06T05:53:56.726Z,0.10
2023-08-06T05:56:27.772Z,0.20
2023-08-06T05:58:58.803Z,0.30
2023-08-06T06:01:29.867Z,0.50
2023-08-06T06:04:00.845Z,0.20
2023-08-06T06:06:32.152Z,0.20
2023-08-06T06:09:03.566Z,0.30
2023-08-06T06:11:34.577Z,0.30
2023-08-06T06:14:05.568Z,0.20
2023-08-06T06:16:36.864Z,0.10
2023-08-06T06:19:07.988Z,0.20
2023-08-06T06:21:40.138Z,0.20
2023-08-06T06:24:11.389Z,0.20
2023-08-06T06:31:15.496Z,0.10
2023-08-06T06:34:52.225Z,0.20
2023-08-06T06:38:03.911Z,0.10
2023-08-06T06:40:41.100Z,0.20
2023-08-06T06:43:24.329Z,0.20
2023-08-06T06:46:13.932Z,0.20
2023-08-06T06:49:03.611Z,0.10
2023-08-06T06:51:55.741Z,0.00
2023-08-06T06:54:32.386Z,0.10
2023-08-06T06:57:15.898Z,0.00
2023-08-06T07:10:45.245Z,0.10
2023-08-06T07:13:17.812Z,0.10
2023-08-06T07:15:48.819Z,0.20
2023-08-06T07:18:19.927Z,0.20
2023-08-06T07:20:54.204Z,0.10
2023-08-06T07:23:26.860Z,0.20
2023-08-06T07:25:57.847Z,0.20
2023-08-06T07:28:29.074Z,0.10
2023-08-06T07:31:00.334Z,0.20
2023-08-06T07:33:31.602Z,0.20
2023-08-06T07:36:09.485Z,0.10
2023-08-06T07:38:40.954Z,0.10
2023-08-06T07:41:12.057Z,0.20
2023-08-06T07:43:43.905Z,0.20
2023-08-06T07:46:15.385Z,0.20
2023-08-06T07:48:47.456Z,0.20
2023-08-06T07:51:19.110Z,0.20
2023-08-06T07:53:50.155Z,0.10
2023-08-06T07:56:21.148Z,0.10
2023-08-06T07:58:52.193Z,0.10
2023-08-06T08:01:23.511Z,0.20
2023-08-06T08:03:54.720Z,0.10
2023-08-06T08:06:26.068Z,0.30
2023-08-06T08:08:57.004Z,0.10
2023-08-06T08:11:28.159Z,0.10
2023-08-06T08:13:59.141Z,0.20
2023-08-06T08:16:30.249Z,0.20
2023-08-06T08:19:01.504Z,0.20
2023-08-06T08:21:32.551Z,0.20
2023-08-06T08:24:06.154Z,0.30
2023-08-06T08:26:37.245Z,0.30
2023-08-06T08:29:08.444Z,0.20
2023-08-06T08:31:40.706Z,0.20
2023-08-06T08:34:11.725Z,0.50
2023-08-06T08:36:42.870Z,0.30
2023-08-06T08:39:13.949Z,0.50
2023-08-06T08:41:46.114Z,0.60
2023-08-06T08:44:18.915Z,0.30
2023-08-06T08:46:51.290Z,0.30
2023-08-06T08:49:25.745Z,0.30
2023-08-06T08:51:58.640Z,0.20
2023-08-06T08:54:31.012Z,0.20
2023-08-06T08:57:01.950Z,0.20
2023-08-06T08:59:34.134Z,0.20
2023-08-06T09:02:06.729Z,0.40
2023-08-06T09:04:38.358Z,0.20
2023-08-06T09:07:10.502Z,0.10
2023-08-06T09:09:46.006Z,0.10
2023-08-06T09:12:19.156Z,0.30
2023-08-06T09:14:50.428Z,0.30
2023-08-06T09:17:21.899Z,0.40
2023-08-06T09:19:53.157Z,0.30
2023-08-06T09:22:24.072Z,0.30
2023-08-06T09:24:55.075Z,0.60
2023-08-06T09:27:26.769Z,0.40
2023-08-06T09:29:57.805Z,0.50
2023-08-06T09:32:29.138Z,0.40
2023-08-06T09:35:01.067Z,0.60
2023-08-06T09:37:39.173Z,0.50
2023-08-06T09:40:28.745Z,0.70
2023-08-06T09:43:01.518Z,0.80
2023-08-06T09:45:35.003Z,0.90
2023-08-06T09:48:07.215Z,1.00
2023-08-06T09:50:39.383Z,1.20
2023-08-06T09:53:11.655Z,1.00
2023-08-06T09:55:43.196Z,1.10
2023-08-06T09:58:15.641Z,1.50
2023-08-06T10:00:46.944Z,1.20
2023-08-06T10:03:19.249Z,1.20
2023-08-06T10:05:51.222Z,1.40
2023-08-06T10:08:23.203Z,1.40
2023-08-06T10:10:55.581Z,1.40
2023-08-06T10:13:27.974Z,1.50
2023-08-06T10:15:59.408Z,1.40
2023-08-06T10:18:31.829Z,1.30
2023-08-06T10:21:03.518Z,1.20
2023-08-06T10:23:42.708Z,1.20
2023-08-06T10:26:17.208Z,1.20
2023-08-06T10:28:48.170Z,1.10
2023-08-06T10:31:19.244Z,0.90
2023-08-06T10:33:50.861Z,1.00
2023-08-06T10:36:21.938Z,0.90
2023-08-06T10:38:55.184Z,0.80
2023-08-06T10:41:32.355Z,1.00
2023-08-06T10:44:11.058Z,0.80
2023-08-06T10:46:42.228Z,0.70
2023-08-06T10:49:15.965Z,0.80
2023-08-06T10:51:47.564Z,0.70
2023-08-06T10:54:19.083Z,0.60
2023-08-06T10:56:50.752Z,0.60
2023-08-06T10:59:22.578Z,0.80
2023-08-06T11:01:54.535Z,0.70
2023-08-06T11:04:26.974Z,0.60
2023-08-06T11:06:57.867Z,0.60
2023-08-06T11:09:28.912Z,0.60
2023-08-06T11:11:59.837Z,0.50
2023-08-06T11:14:32.809Z,0.90
2023-08-06T11:17:04.142Z,0.80
2023-08-06T11:19:36.162Z,0.90
2023-08-06T11:22:07.366Z,0.80
2023-08-06T11:24:39.453Z,0.80
2023-08-06T11:27:16.328Z,0.90
2023-08-06T11:32:18.224Z,0.90
2023-08-06T11:34:49.997Z,1.00
2023-08-06T11:37:26.372Z,1.00
2023-08-06T11:40:01.682Z,1.10
2023-08-06T11:42:36.909Z,1.10
2023-08-06T11:45:10.678Z,0.90
2023-08-06T11:47:43.372Z,1.00
2023-08-06T11:50:26.208Z,1.00
2023-08-06T11:53:02.127Z,1.30
2023-08-06T11:55:33.484Z,1.20
2023-08-06T11:58:06.994Z,1.40
2023-08-06T12:00:38.784Z,1.50
2023-08-06T12:03:10.028Z,1.40
2023-08-06T12:05:41.839Z,1.10
2023-08-06T12:08:12.887Z,1.40
2023-08-06T12:10:44.128Z,1.90
2023-08-06T12:13:15.369Z,1.60
2023-08-06T12:15:46.606Z,1.50
2023-08-06T12:18:17.877Z,1.80
2023-08-06T12:20:49.028Z,1.80
2023-08-06T12:23:20.307Z,1.90
2023-08-06T12:25:51.913Z,3.50
2023-08-06T12:28:24.154Z,2.10
2023-08-06T12:30:56.442Z,2.20
2023-08-06T12:33:28.397Z,3.00
2023-08-06T12:35:59.584Z,2.30
2023-08-06T12:38:34.864Z,2.50
2023-08-06T12:41:05.867Z,1.90
2023-08-06T12:43:37.110Z,2.00
2023-08-06T12:46:08.153Z,2.40
2023-08-06T12:48:39.261Z,1.90
2023-08-06T12:51:10.170Z,1.80
2023-08-06T12:53:41.194Z,3.10
2023-08-06T12:56:12.245Z,2.30
2023-08-06T12:58:43.820Z,3.90
2023-08-06T13:01:14.870Z,1.50
2023-08-06T13:03:46.093Z,5.20
2023-08-06T13:06:17.234Z,2.30
2023-08-06T13:08:48.237Z,3.80
2023-08-06T13:11:20.195Z,1.90
2023-08-06T13:13:54.322Z,1.60
2023-08-06T13:16:25.639Z,1.70
2023-08-06T13:18:56.721Z,1.40
2023-08-06T13:21:33.528Z,1.90
2023-08-06T13:24:04.759Z,1.60
2023-08-06T13:26:35.822Z,3.50
2023-08-06T13:29:08.493Z,1.50
2023-08-06T13:31:39.771Z,1.80
2023-08-06T13:34:10.786Z,1.80
2023-08-06T13:36:42.078Z,3.20
2023-08-06T13:39:13.336Z,3.20
2023-08-06T13:41:44.530Z,4.20
2023-08-06T13:44:16.069Z,4.20
2023-08-06T13:46:46.994Z,5.00
2023-08-06T13:49:18.033Z,2.00
2023-08-06T13:51:49.140Z,2.80
2023-08-06T13:54:21.796Z,3.70
2023-08-06T13:56:54.623Z,7.80
2023-08-06T13:59:26.263Z,8.90
2023-08-06T14:02:00.825Z,6.80
2023-08-06T14:04:31.896Z,2.30
2023-08-06T14:07:03.075Z,2.20
2023-08-06T14:09:35.505Z,3.60
2023-08-06T14:12:06.871Z,4.60
2023-08-06T14:14:38.860Z,3.90
2023-08-06T14:17:09.788Z,2.20
2023-08-06T14:19:40.773Z,2.40
2023-08-06T14:22:11.806Z,2.40
2023-08-06T14:24:43.050Z,9.40
2023-08-06T14:27:14.064Z,4.40
2023-08-06T14:29:45.119Z,13.10
2023-08-06T14:32:19.363Z,3.40
2023-08-06T14:34:50.422Z,2.80
2023-08-06T14:37:21.470Z,2.80
2023-08-06T14:39:55.397Z,2.10
2023-08-06T14:42:26.735Z,2.40
2023-08-06T14:44:57.777Z,2.10
2023-08-06T14:47:28.664Z,2.00
2023-08-06T14:49:59.560Z,2.20
2023-08-06T14:52:30.687Z,2.20
2023-08-06T14:55:03.613Z,2.80
2023-08-06T14:57:34.979Z,2.10
2023-08-06T15:00:07.816Z,1.90
2023-08-06T15:02:38.999Z,1.70
2023-08-06T15:05:10.920Z,2.50
2023-08-06T15:07:41.926Z,2.90
2023-08-06T15:10:25.845Z,2.30
2023-08-06T15:12:58.872Z,2.20
2023-08-06T15:15:30.349Z,2.20
2023-08-06T15:18:01.597Z,2.50
2023-08-06T15:20:33.556Z,2.00
2023-08-06T15:23:04.713Z,1.90
2023-08-06T15:25:35.823Z,2.20
2023-08-06T15:28:08.255Z,3.60
2023-08-06T15:30:40.852Z,2.70
2023-08-06T15:33:11.863Z,2.30
2023-08-06T15:35:42.974Z,2.50
2023-08-06T15:38:14.127Z,2.20
2023-08-06T15:40:46.536Z,2.50
2023-08-06T15:43:17.852Z,2.40
2023-08-06T15:45:49.098Z,2.70
2023-08-06T15:48:20.146Z,3.20
2023-08-06T15:50:51.259Z,4.80
2023-08-06T15:53:22.415Z,7.90
2023-08-06T15:55:53.703Z,6.60
2023-08-06T15:58:24.668Z,5.30
2023-08-06T16:00:55.668Z,3.90
2023-08-06T16:03:26.603Z,3.30
2023-08-06T16:05:58.255Z,3.00
2023-08-06T16:08:30.111Z,4.80
2023-08-06T16:11:01.654Z,3.60
2023-08-06T16:13:33.121Z,3.30
2023-08-06T16:16:04.272Z,3.40
2023-08-06T16:18:35.302Z,2.60
2023-08-06T16:21:06.249Z,3.10
2023-08-06T16:23:37.288Z,2.90
2023-08-06T16:26:08.377Z,3.40
2023-08-06T16:28:39.755Z,3.50
2023-08-06T16:31:11.582Z,4.60
2023-08-06T16:33:44.011Z,4.00
2023-08-06T16:36:15.103Z,4.50
2023-08-06T16:38:46.100Z,4.60
2023-08-06T16:41:16.988Z,4.40
2023-08-06T16:43:48.074Z,3.20
2023-08-06T16:46:19.333Z,3.40
2023-08-06T16:48:50.729Z,3.40
2023-08-06T16:51:21.818Z,3.40
2023-08-06T16:53:52.794Z,3.60
2023-08-06T16:56:24.183Z,3.30
2023-08-06T16:58:55.434Z,3.20
2023-08-06T17:01:26.593Z,5.30
2023-08-06T17:03:57.725Z,3.50
2023-08-06T17:06:28.685Z,2.90
2023-08-06T17:08:59.963Z,3.60
2023-08-06T17:11:34.375Z,3.60
2023-08-06T17:14:05.350Z,2.70
2023-08-06T17:16:36.336Z,4.30
2023-08-06T17:19:07.379Z,2.90
2023-08-06T17:21:39.168Z,2.70
2023-08-06T17:24:10.196Z,2.70
2023-08-06T17:26:41.296Z,3.10
2023-08-06T17:29:12.420Z,2.90
2023-08-06T17:31:43.791Z,3.20
2023-08-06T17:34:14.855Z,3.00
2023-08-06T17:36:46.000Z,2.80
2023-08-06T17:39:17.426Z,3.20
2023-08-06T17:41:49.083Z,2.60
2023-08-06T17:44:20.312Z,3.60
2023-08-06T17:46:51.715Z,2.40
2023-08-06T17:49:23.025Z,3.30
2023-08-06T17:51:54.090Z,2.80
2023-08-06T17:54:25.745Z,3.40
2023-08-06T17:56:59.298Z,2.90
2023-08-06T17:59:31.104Z,2.80
2023-08-06T18:02:02.261Z,2.70
2023-08-06T18:04:33.891Z,2.70
2023-08-06T18:07:05.037Z,2.40
2023-08-06T18:09:36.030Z,2.40
2023-08-06T18:12:09.721Z,2.50
2023-08-06T18:14:40.782Z,2.20
2023-08-06T18:17:12.120Z,2.20
2023-08-06T18:19:43.113Z,2.30
2023-08-06T18:22:14.111Z,2.20
2023-08-06T18:24:45.010Z,2.10
2023-08-06T18:27:18.812Z,2.20
2023-08-06T18:29:50.560Z,2.20
2023-08-06T18:32:22.323Z,2.40
2023-08-06T18:34:53.457Z,2.40
2023-08-06T18:37:24.652Z,2.20
2023-08-06T18:40:02.445Z,2.50
2023-08-06T18:42:34.545Z,2.40
2023-08-06T18:45:05.937Z,2.80
2023-08-06T18:47:36.883Z,3.30
2023-08-06T18:50:09.098Z,5.90
2023-08-06T18:52:40.268Z,4.60
2023-08-06T18:55:11.743Z,3.40
2023-08-06T18:57:42.860Z,2.60
2023-08-06T19:00:15.237Z,3.10
2023-08-06T19:02:46.384Z,3.60
2023-08-06T19:05:17.725Z,3.40
2023-08-06T19:07:48.597Z,2.70
2023-08-06T19:10:19.824Z,2.40
2023-08-06T19:12:50.855Z,2.50
2023-08-06T19:15:21.948Z,2.30
2023-08-06T19:17:52.876Z,2.50
2023-08-06T19:20:24.045Z,2.80
2023-08-06T19:22:55.152Z,2.30
2023-08-06T19:25:26.188Z,2.20
2023-08-06T19:27:57.243Z,2.50
2023-08-06T19:30:29.140Z,2.10
2023-08-06T19:33:00.117Z,2.60
2023-08-06T19:35:31.133Z,2.40
2023-08-06T19:38:02.255Z,2.70
2023-08-06T19:40:33.440Z,2.40
2023-08-06T19:43:04.534Z,2.30
2023-08-06T19:45:35.580Z,2.40
2023-08-06T19:48:07.499Z,2.30
2023-08-06T19:50:38.517Z,2.10
2023-08-06T19:53:09.497Z,2.60
2023-08-06T19:55:45.824Z,3.20
2023-08-06T19:58:17.022Z,2.80
2023-08-06T20:00:48.117Z,2.50
2023-08-06T20:03:21.986Z,2.40
2023-08-06T20:05:53.411Z,2.20
2023-08-06T20:08:24.425Z,2.30
2023-08-06T20:10:58.130Z,2.80
2023-08-06T20:13:29.184Z,2.60
2023-08-06T20:16:01.628Z,3.50
2023-08-06T20:18:32.790Z,3.30
2023-08-06T20:21:03.658Z,3.50
2023-08-06T20:23:35.074Z,3.40
2023-08-06T20:26:06.406Z,3.40
2023-08-06T20:28:37.464Z,3.20
2023-08-06T20:31:08.590Z,3.30
2023-08-06T20:33:39.744Z,3.00
2023-08-06T20:36:10.640Z,3.10
2023-08-06T20:38:44.797Z,2.60
2023-08-06T20:41:16.182Z,2.70
2023-08-06T20:43:47.501Z,2.90
2023-08-06T20:46:18.390Z,3.50
2023-08-06T20:48:49.712Z,2.80
2023-08-06T20:51:20.722Z,3.20
2023-08-06T20:53:51.860Z,2.70
2023-08-06T20:56:22.779Z,2.90
2023-08-06T20:58:53.720Z,2.90
2023-08-06T21:01:25.036Z,2.80
2023-08-06T21:03:55.980Z,3.10
2023-08-06T21:06:27.081Z,3.20
2023-08-06T21:08:57.932Z,3.20
2023-08-06T21:11:29.306Z,3.10
2023-08-06T21:14:00.422Z,3.10
2023-08-06T21:16:32.160Z,2.80
2023-08-06T21:19:05.670Z,3.20
2023-08-06T21:21:37.527Z,3.20
2023-08-06T21:24:09.832Z,3.70
2023-08-06T21:26:40.853Z,3.00
2023-08-06T21:29:12.183Z,2.40
2023-08-06T21:31:43.244Z,3.40
2023-08-06T21:34:14.853Z,2.60
2023-08-06T21:36:45.948Z,2.30
2023-08-06T21:39:17.369Z,2.60
2023-08-06T21:41:48.532Z,2.50
2023-08-06T21:44:19.587Z,2.40
2023-08-06T21:46:50.658Z,2.20
2023-08-06T21:49:22.099Z,2.60
2023-08-06T21:51:53.468Z,2.90
2023-08-06T21:54:24.707Z,2.90
2023-08-06T21:56:55.663Z,2.60
2023-08-06T21:59:26.767Z,2.80
2023-08-06T22:01:58.012Z,2.50
2023-08-06T22:04:29.274Z,2.70
2023-08-06T22:07:00.258Z,2.80
2023-08-06T22:09:31.249Z,2.50
2023-08-06T22:12:02.289Z,2.60
2023-08-06T22:14:33.284Z,3.10
2023-08-06T22:17:04.378Z,2.80
2023-08-06T22:19:35.226Z,2.50
2023-08-06T22:22:06.776Z,2.70
2023-08-06T22:24:37.886Z,2.90
2023-08-06T22:27:09.656Z,3.10
2023-08-06T22:29:40.996Z,2.90
2023-08-06T22:32:12.271Z,3.20
2023-08-06T22:34:43.621Z,2.30
2023-08-06T22:37:14.663Z,1.90
2023-08-06T22:39:46.083Z,2.20
2023-08-06T22:42:17.146Z,2.10
2023-08-06T22:44:48.294Z,1.90
2023-08-06T22:47:21.037Z,1.80
2023-08-06T22:49:52.289Z,2.00
2023-08-06T22:52:23.175Z,1.70
2023-08-06T22:55:08.691Z,1.60
2023-08-06T22:57:43.165Z,1.80
2023-08-06T23:00:16.361Z,2.00
2023-08-06T23:02:58.784Z,1.50
2023-08-06T23:05:34.646Z,1.50
2023-08-06T23:08:05.937Z,1.60
2023-08-06T23:10:37.209Z,1.60
2023-08-06T23:13:09.663Z,1.90
2023-08-06T23:15:40.883Z,1.70
2023-08-06T23:18:11.998Z,1.70
2023-08-06T23:20:42.952Z,2.00
2023-08-06T23:23:14.022Z,1.70
2023-08-06T23:25:45.002Z,1.60
2023-08-06T23:28:16.212Z,1.50
2023-08-06T23:30:52.064Z,1.50
2023-08-06T23:33:23.361Z,1.10
2023-08-06T23:35:54.243Z,1.20
2023-08-06T23:38:28.157Z,1.30
2023-08-06T23:40:59.146Z,1.30
2023-08-06T23:43:30.795Z,1.10
2023-08-06T23:46:01.791Z,1.30
2023-08-06T23:48:33.131Z,1.50
2023-08-06T23:51:04.214Z,1.30
2023-08-06T23:53:35.693Z,1.20
2023-08-06T23:56:07.019Z,1.40
2023-08-06T23:58:38.071Z,1.10
